createdAt,value
2019-01-15T00:01:09.821Z,67.95
2019-01-15T00:03:38.623Z,67.96
2019-01-15T00:06:07.395Z,68.17
2019-01-15T00:08:36.079Z,68.20
2019-01-15T00:11:05.337Z,67.65
2019-01-15T00:13:34.018Z,67.18
2019-01-15T00:16:02.716Z,66.60
2019-01-15T00:18:31.437Z,66.82
2019-01-15T00:21:00.115Z,66.69
2019-01-15T00:23:28.801Z,66.70
2019-01-15T00:25:57.505Z,66.48
2019-01-15T00:28:26.191Z,66.38
2019-01-15T00:30:54.860Z,66.22
2019-01-15T00:33:23.929Z,65.97
2019-01-15T00:35:52.603Z,64.79
2019-01-15T00:38:21.270Z,64.02
2019-01-15T00:40:50.066Z,63.30
2019-01-15T00:43:18.741Z,61.79
2019-01-15T00:45:47.426Z,61.95
2019-01-15T00:48:16.284Z,61.68
2019-01-15T00:50:44.950Z,61.96
2019-01-15T00:53:13.622Z,62.23
2019-01-15T00:55:42.632Z,62.45
2019-01-15T00:58:13.277Z,61.81
2019-01-15T01:00:41.943Z,62.01
2019-01-15T01:03:10.742Z,62.18
2019-01-15T01:05:39.412Z,61.96
2019-01-15T01:08:08.083Z,62.13
2019-01-15T01:10:36.912Z,62.26
2019-01-15T01:13:05.958Z,62.07
2019-01-15T01:15:34.640Z,62.35
2019-01-15T01:18:03.414Z,62.51
2019-01-15T01:20:33.099Z,62.38
2019-01-15T01:23:01.780Z,62.06
2019-01-15T01:25:30.876Z,62.17
2019-01-15T01:27:59.545Z,62.15
2019-01-15T01:30:28.216Z,62.48
2019-01-15T01:32:57.317Z,62.02
2019-01-15T01:35:25.992Z,62.03
2019-01-15T01:37:54.710Z,61.87
2019-01-15T01:40:23.572Z,61.67
2019-01-15T01:42:52.238Z,61.42
2019-01-15T01:45:20.921Z,61.36
2019-01-15T01:47:49.745Z,61.01
2019-01-15T01:50:18.419Z,61.25
2019-01-15T01:52:47.081Z,60.58
2019-01-15T01:55:16.104Z,60.56
2019-01-15T01:57:44.884Z,60.80
2019-01-15T02:00:18.514Z,61.04
2019-01-15T02:02:47.327Z,61.15
2019-01-15T02:05:15.997Z,60.60
2019-01-15T02:07:48.278Z,60.29
2019-01-15T02:10:18.034Z,60.44
2019-01-15T02:12:46.925Z,59.78
2019-01-15T02:15:20.606Z,59.15
2019-01-15T02:17:50.702Z,58.89
2019-01-15T02:20:20.489Z,58.57
2019-01-15T02:22:49.854Z,58.37
2019-01-15T02:25:18.903Z,58.45
2019-01-15T02:27:49.239Z,58.15
2019-01-15T02:30:19.930Z,58.35
2019-01-15T02:32:48.782Z,58.23
2019-01-15T02:35:17.451Z,57.75
2019-01-15T02:37:46.276Z,57.61
2019-01-15T02:40:16.755Z,57.68
2019-01-15T02:42:46.812Z,57.85
2019-01-15T02:45:18.870Z,57.78
2019-01-15T02:47:48.264Z,58.10
2019-01-15T02:50:18.827Z,57.59
2019-01-15T02:52:47.597Z,57.59
2019-01-15T02:55:16.726Z,57.31
2019-01-15T02:57:45.486Z,57.51
2019-01-15T03:00:16.946Z,57.37
2019-01-15T03:02:46.224Z,57.22
2019-01-15T03:05:15.193Z,57.01
2019-01-15T03:07:43.866Z,56.46
2019-01-15T03:10:15.761Z,56.39
2019-01-15T03:12:46.007Z,56.48
2019-01-15T03:15:14.884Z,56.22
2019-01-15T03:17:43.687Z,56.00
2019-01-15T03:20:17.129Z,55.74
2019-01-15T03:22:45.807Z,55.57
2019-01-15T03:25:14.932Z,55.56
2019-01-15T03:27:43.749Z,54.64
2019-01-15T03:30:20.953Z,54.64
2019-01-15T03:32:49.628Z,54.49
2019-01-15T03:35:18.497Z,54.49
2019-01-15T03:37:47.232Z,53.89
2019-01-15T03:40:24.085Z,53.70
2019-01-15T03:42:53.002Z,53.24
2019-01-15T03:45:21.674Z,53.43
2019-01-15T03:47:50.359Z,53.58
2019-01-15T03:50:19.150Z,53.64
2019-01-15T03:52:47.822Z,53.96
2019-01-15T03:55:17.093Z,53.63
2019-01-15T03:57:45.958Z,53.63
2019-01-15T04:00:17.231Z,54.55
2019-01-15T04:02:46.102Z,54.48
2019-01-15T04:05:16.827Z,54.48
2019-01-15T04:07:46.394Z,54.90
2019-01-15T04:10:15.067Z,54.94
2019-01-15T04:12:43.982Z,55.58
2019-01-15T04:15:13.858Z,56.01
2019-01-15T04:17:42.552Z,57.57
2019-01-15T04:20:18.626Z,58.56
2019-01-15T04:22:48.743Z,58.95
2019-01-15T04:25:17.432Z,58.05
2019-01-15T04:27:46.173Z,58.40
2019-01-15T04:30:17.315Z,57.99
2019-01-15T04:32:46.187Z,57.52
2019-01-15T04:35:15.091Z,56.17
2019-01-15T04:37:43.766Z,55.96
2019-01-15T04:40:15.399Z,54.11
2019-01-15T04:42:44.135Z,54.11
2019-01-15T04:45:15.624Z,53.78
2019-01-15T04:47:44.276Z,54.09
2019-01-15T04:50:13.389Z,53.98
2019-01-15T04:52:43.866Z,54.08
2019-01-15T04:55:12.850Z,54.08
2019-01-15T04:57:41.662Z,54.15
2019-01-15T05:00:21.672Z,53.61
2019-01-15T05:02:50.728Z,53.54
2019-01-15T05:05:20.325Z,52.92
2019-01-15T05:07:49.622Z,53.38
2019-01-15T05:10:18.967Z,52.64
2019-01-15T05:12:47.629Z,52.64
2019-01-15T05:15:19.006Z,52.74
2019-01-15T05:17:47.743Z,52.74
2019-01-15T05:20:18.685Z,53.05
2019-01-15T05:22:47.343Z,53.05
2019-01-15T05:25:18.674Z,53.52
2019-01-15T05:27:47.351Z,53.52
2019-01-15T05:30:21.508Z,52.79
2019-01-15T05:32:50.320Z,52.33
2019-01-15T05:35:20.446Z,52.45
2019-01-15T05:37:49.110Z,52.45
2019-01-15T05:40:17.838Z,52.32
2019-01-15T05:42:46.692Z,52.47
2019-01-15T05:45:22.037Z,52.40
2019-01-15T05:47:52.499Z,52.18
2019-01-15T05:50:28.618Z,51.88
2019-01-15T05:52:57.362Z,52.09
2019-01-15T05:55:26.043Z,52.41
2019-01-15T05:57:54.721Z,52.12
2019-01-15T06:00:23.547Z,52.27
2019-01-15T06:02:52.246Z,52.50
2019-01-15T06:05:20.916Z,52.59
2019-01-15T06:07:49.753Z,52.60
2019-01-15T06:10:18.429Z,52.47
2019-01-15T06:12:47.119Z,53.12
2019-01-15T06:15:16.965Z,53.63
2019-01-15T06:17:45.746Z,54.46
2019-01-15T06:20:22.131Z,54.46
2019-01-15T06:22:50.819Z,54.16
2019-01-15T06:25:19.968Z,54.63
2019-01-15T06:27:48.752Z,55.07
2019-01-15T06:30:20.099Z,54.75
2019-01-15T06:32:48.769Z,54.71
2019-01-15T06:35:17.495Z,55.53
2019-01-15T06:37:46.261Z,55.36
2019-01-15T06:40:19.471Z,55.44
2019-01-15T06:42:48.286Z,54.99
2019-01-15T06:45:20.142Z,54.74
2019-01-15T06:47:48.831Z,52.81
2019-01-15T06:50:17.650Z,52.81
2019-01-15T06:52:46.328Z,52.58
2019-01-15T06:55:17.645Z,51.87
2019-01-15T06:57:46.466Z,51.87
2019-01-15T07:00:18.054Z,51.43
2019-01-15T07:02:46.838Z,51.81
2019-01-15T07:05:16.040Z,52.18
2019-01-15T07:07:45.586Z,52.18
2019-01-15T07:10:17.559Z,50.88
2019-01-15T07:12:46.257Z,50.36
2019-01-15T07:15:15.047Z,50.44
2019-01-15T07:17:43.719Z,50.91
2019-01-15T07:20:18.956Z,49.53
2019-01-15T07:22:47.628Z,49.04
2019-01-15T07:25:18.806Z,49.35
2019-01-15T07:27:47.605Z,48.44
2019-01-15T07:30:19.049Z,47.58
2019-01-15T07:32:47.732Z,46.52
2019-01-15T07:35:16.562Z,46.95
2019-01-15T07:37:45.242Z,46.89
2019-01-15T07:40:14.626Z,46.23
2019-01-15T07:42:43.794Z,46.12
2019-01-15T07:45:14.317Z,46.17
2019-01-15T07:47:43.085Z,46.00
2019-01-15T07:50:19.645Z,45.57
2019-01-15T07:52:48.724Z,45.51
2019-01-15T07:55:19.094Z,45.44
2019-01-15T07:57:47.770Z,45.23
2019-01-15T08:00:23.685Z,44.77
2019-01-15T08:02:53.923Z,44.77
2019-01-15T08:05:25.368Z,45.10
2019-01-15T08:07:54.439Z,45.46
2019-01-15T08:10:23.144Z,44.86
2019-01-15T08:12:51.820Z,44.50
2019-01-15T08:15:22.699Z,44.24
2019-01-15T08:17:51.529Z,44.23
2019-01-15T08:20:20.405Z,43.47
2019-01-15T08:22:49.082Z,43.67
2019-01-15T08:25:18.397Z,43.24
2019-01-15T08:27:47.171Z,43.28
2019-01-15T08:30:18.647Z,43.63
2019-01-15T08:32:47.402Z,43.15
2019-01-15T08:35:16.385Z,42.81
2019-01-15T08:37:45.056Z,40.58
2019-01-15T08:40:15.793Z,42.15
2019-01-15T08:42:44.566Z,41.81
2019-01-15T08:45:15.507Z,38.81
2019-01-15T08:48:01.139Z,39.09
2019-01-15T08:50:33.532Z,38.45
2019-01-15T08:53:02.198Z,38.00
2019-01-15T08:55:31.078Z,38.40
2019-01-15T08:57:59.761Z,38.03
2019-01-15T09:00:28.447Z,39.34
2019-01-15T09:02:57.189Z,39.25
2019-01-15T09:05:25.867Z,39.65
2019-01-15T09:07:54.541Z,39.48
2019-01-15T09:10:23.366Z,39.36
2019-01-15T09:12:52.466Z,38.57
2019-01-15T09:15:22.643Z,38.34
2019-01-15T09:17:51.432Z,38.46
2019-01-15T09:20:21.605Z,37.48
2019-01-15T09:22:50.380Z,37.34
2019-01-15T09:25:19.323Z,37.43
2019-01-15T09:27:47.996Z,38.47
2019-01-15T09:30:21.644Z,37.61
2019-01-15T09:32:50.975Z,38.62
2019-01-15T09:35:19.747Z,39.01
2019-01-15T09:37:49.727Z,39.30
2019-01-15T09:40:23.188Z,39.32
2019-01-15T09:42:51.866Z,38.16
2019-01-15T09:45:22.531Z,38.45
2019-01-15T09:48:02.231Z,38.08
2019-01-15T09:50:30.909Z,38.14
2019-01-15T09:52:59.788Z,39.06
2019-01-15T09:55:28.610Z,40.03
2019-01-15T09:57:57.280Z,39.62
2019-01-15T10:00:25.947Z,40.58
2019-01-15T10:02:54.767Z,40.15
2019-01-15T10:05:23.428Z,41.42
2019-01-15T10:07:52.108Z,40.98
2019-01-15T10:10:21.140Z,40.29
2019-01-15T10:12:49.809Z,40.93
2019-01-15T10:15:20.407Z,40.84
2019-01-15T10:17:49.531Z,40.91
2019-01-15T10:20:19.314Z,41.23
2019-01-15T10:22:49.085Z,41.71
2019-01-15T10:25:19.672Z,42.23
2019-01-15T10:27:52.547Z,41.90
2019-01-15T10:30:54.466Z,41.11
2019-01-15T10:33:28.998Z,42.26
2019-01-15T10:35:57.954Z,41.42
2019-01-15T10:38:29.230Z,41.62
2019-01-15T10:40:58.403Z,42.24
2019-01-15T10:43:28.259Z,41.29
2019-01-15T10:45:56.926Z,41.65
2019-01-15T10:48:25.594Z,41.33
2019-01-15T10:50:54.511Z,40.51
2019-01-15T10:53:23.178Z,39.70
2019-01-15T10:55:51.854Z,41.03
2019-01-15T10:58:21.054Z,39.64
2019-01-15T11:00:49.720Z,40.00
2019-01-15T11:03:18.404Z,40.22
2019-01-15T11:05:47.137Z,39.90
2019-01-15T11:08:15.915Z,41.03
2019-01-15T11:10:44.593Z,40.78
2019-01-15T11:13:13.431Z,41.09
2019-01-15T11:15:43.422Z,38.43
2019-01-15T11:18:12.367Z,38.95
2019-01-15T11:20:41.187Z,38.85
2019-01-15T11:23:09.949Z,39.45
2019-01-15T11:25:38.617Z,39.91
2019-01-15T11:28:07.359Z,38.17
2019-01-15T11:30:36.057Z,38.63
2019-01-15T11:35:35.541Z,38.50
2019-01-15T11:38:04.616Z,39.10
2019-01-15T11:40:33.293Z,39.31
2019-01-15T11:43:02.068Z,39.65
2019-01-15T11:45:30.733Z,39.99
2019-01-15T11:48:00.006Z,39.93
2019-01-15T11:50:28.840Z,40.32
2019-01-15T11:52:57.526Z,39.47
2019-01-15T11:55:26.188Z,39.40
2019-01-15T11:57:54.923Z,40.12
2019-01-15T12:00:38.912Z,40.89
2019-01-15T12:03:18.479Z,39.53
2019-01-15T12:05:48.723Z,39.12
2019-01-15T12:08:18.980Z,38.35
2019-01-15T12:11:07.105Z,38.26
2019-01-15T12:13:52.168Z,36.99
2019-01-15T12:16:22.566Z,36.68
2019-01-15T12:18:55.797Z,36.75
2019-01-15T12:21:41.246Z,36.61
2019-01-15T12:24:29.031Z,37.50
2019-01-15T12:27:02.281Z,36.97
2019-01-15T12:29:38.419Z,36.29
2019-01-15T12:32:15.286Z,36.51
2019-01-15T12:34:51.450Z,36.75
2019-01-15T12:37:24.567Z,37.12
2019-01-15T12:40:10.101Z,37.22
2019-01-15T12:42:40.487Z,37.63
2019-01-15T12:45:19.747Z,37.66
2019-01-15T12:48:06.700Z,38.15
2019-01-15T12:50:36.952Z,37.96
2019-01-15T12:53:23.661Z,38.62
2019-01-15T12:56:10.223Z,38.60
2019-01-15T12:58:49.346Z,38.84
2019-01-15T13:01:35.929Z,38.23
2019-01-15T13:04:18.175Z,38.46
2019-01-15T13:06:55.717Z,38.15
2019-01-15T13:09:29.091Z,38.69
2019-01-15T13:12:15.373Z,39.06
2019-01-15T13:14:48.739Z,39.88
2019-01-15T13:17:37.378Z,40.99
2019-01-15T13:20:16.991Z,40.93
2019-01-15T13:22:55.987Z,41.33
2019-01-15T13:25:42.011Z,41.58
2019-01-15T13:28:30.816Z,41.77
2019-01-15T13:31:07.204Z,42.09
2019-01-15T13:33:37.464Z,42.13
2019-01-15T13:36:24.810Z,41.83
2019-01-15T13:39:00.808Z,42.32
2019-01-15T13:41:31.107Z,41.29
2019-01-15T13:44:17.694Z,41.29
2019-01-15T13:47:03.186Z,40.58
2019-01-15T13:49:39.527Z,40.58
2019-01-15T13:52:22.215Z,40.42
2019-01-15T13:55:07.771Z,40.21
2019-01-15T13:57:38.392Z,40.25
2019-01-15T14:00:14.529Z,40.57
2019-01-15T14:02:54.065Z,40.00
2019-01-15T14:05:40.847Z,40.60
2019-01-15T14:08:26.758Z,41.00
2019-01-15T14:11:02.537Z,40.87
2019-01-15T14:13:32.874Z,40.69
2019-01-15T14:16:09.051Z,40.68
2019-01-15T14:18:42.343Z,40.83
2019-01-15T14:21:15.550Z,41.11
2019-01-15T14:23:45.749Z,41.35
2019-01-15T14:26:28.897Z,41.62
2019-01-15T14:29:15.269Z,41.27
2019-01-15T14:31:48.755Z,41.66
2019-01-15T14:34:21.883Z,41.78
2019-01-15T14:36:54.914Z,42.13
2019-01-15T14:39:37.448Z,43.47
2019-01-15T14:42:10.936Z,43.51
2019-01-15T14:44:50.177Z,43.66
2019-01-15T14:47:32.273Z,43.45
2019-01-15T14:50:02.535Z,42.95
2019-01-15T14:52:32.878Z,43.25
2019-01-15T14:55:03.361Z,43.79
2019-01-15T14:57:33.607Z,44.25
2019-01-15T15:00:10.184Z,43.84
2019-01-15T15:02:49.643Z,43.84
2019-01-15T15:05:26.146Z,44.17
2019-01-15T15:08:05.552Z,43.78
2019-01-15T15:10:43.071Z,43.78
2019-01-15T15:13:16.309Z,43.95
2019-01-15T15:15:46.577Z,42.76
2019-01-15T15:18:16.999Z,42.77
2019-01-15T15:20:50.991Z,42.87
2019-01-15T15:23:25.324Z,43.56
2019-01-15T15:26:01.348Z,43.83
2019-01-15T15:28:32.138Z,44.07
2019-01-15T15:31:20.210Z,44.54
2019-01-15T15:33:53.343Z,44.54
2019-01-15T15:36:29.359Z,44.44
2019-01-15T15:38:59.775Z,44.06
2019-01-15T15:41:42.122Z,44.36
2019-01-15T15:44:24.315Z,44.81
2019-01-15T15:46:56.106Z,45.02
2019-01-15T15:49:41.759Z,44.83
2019-01-15T15:52:28.339Z,44.05
2019-01-15T15:54:58.747Z,44.05
2019-01-15T15:57:32.016Z,44.08
2019-01-15T16:00:05.689Z,43.83
2019-01-15T16:02:35.934Z,43.47
2019-01-15T16:05:24.014Z,43.35
2019-01-15T16:07:54.225Z,43.13
2019-01-15T16:10:30.968Z,43.58
2019-01-15T16:13:01.212Z,43.82
2019-01-15T16:15:34.444Z,43.70
2019-01-15T16:18:10.751Z,43.28
2019-01-15T16:20:40.996Z,43.62
2019-01-15T16:23:14.131Z,44.23
2019-01-15T16:25:50.467Z,44.82
2019-01-15T16:28:26.822Z,45.47
2019-01-15T16:30:57.220Z,45.25
2019-01-15T16:33:33.251Z,45.48
2019-01-15T16:36:03.891Z,45.38
2019-01-15T16:38:34.150Z,45.67
2019-01-15T16:41:19.654Z,46.01
2019-01-15T16:44:02.045Z,46.69
2019-01-15T16:46:32.367Z,47.13
2019-01-15T16:49:17.615Z,47.59
2019-01-15T16:51:47.925Z,48.04
2019-01-15T16:54:18.168Z,47.84
2019-01-15T16:56:48.409Z,48.37
2019-01-15T16:59:30.741Z,48.91
2019-01-15T17:02:04.011Z,48.51
2019-01-15T17:04:50.602Z,48.89
2019-01-15T17:07:23.837Z,49.64
2019-01-15T17:09:54.079Z,50.91
2019-01-15T17:12:30.415Z,50.86
2019-01-15T17:15:00.671Z,50.49
2019-01-15T17:31:11.803Z,50.58
2019-01-15T17:33:54.300Z,50.46
2019-01-15T17:36:43.007Z,50.08
2019-01-15T17:39:29.474Z,49.73
2019-01-15T17:42:12.217Z,50.37
2019-01-15T17:44:45.536Z,50.77
2019-01-15T17:47:15.793Z,50.83
2019-01-15T17:50:02.593Z,51.14
2019-01-15T17:52:35.570Z,50.85
2019-01-15T17:55:13.235Z,51.08
2019-01-15T17:58:00.093Z,51.32
2019-01-15T18:00:36.250Z,51.45
2019-01-15T18:03:25.698Z,51.19
2019-01-15T18:05:56.007Z,51.94
2019-01-15T18:08:34.890Z,52.20
2019-01-15T18:11:05.217Z,52.41
2019-01-15T18:14:04.669Z,52.71
2019-01-15T18:16:34.977Z,53.41
2019-01-15T18:19:08.145Z,53.80
2019-01-15T18:21:41.362Z,53.87
2019-01-15T18:24:26.508Z,54.35
2019-01-15T18:27:13.214Z,54.02
2019-01-15T18:29:52.445Z,53.66
2019-01-15T18:32:32.667Z,53.88
2019-01-15T18:35:10.299Z,53.88
2019-01-15T18:37:49.065Z,53.86
2019-01-15T18:40:36.918Z,54.05
2019-01-15T18:43:16.256Z,54.04
2019-01-15T18:45:46.518Z,54.04
2019-01-15T18:48:33.011Z,53.61
2019-01-15T18:51:19.458Z,53.61
2019-01-15T18:53:50.204Z,53.55
2019-01-15T18:56:26.285Z,54.11
2019-01-15T18:59:13.050Z,54.11
2019-01-15T19:01:43.310Z,53.87
2019-01-15T19:04:21.099Z,53.24
2019-01-15T19:06:51.357Z,53.25
2019-01-15T19:09:33.657Z,53.25
2019-01-15T19:12:03.912Z,53.55
2019-01-15T19:14:49.670Z,55.38
2019-01-15T19:17:36.290Z,57.05
2019-01-15T19:20:18.733Z,58.15
2019-01-15T19:22:55.171Z,59.07
2019-01-15T19:25:31.282Z,59.60
2019-01-15T19:28:01.566Z,59.34
2019-01-15T19:30:44.103Z,59.34
2019-01-15T19:33:20.262Z,59.21
2019-01-15T19:36:07.434Z,58.78
2019-01-15T19:38:40.705Z,58.78
2019-01-15T19:41:27.479Z,57.77
2019-01-15T19:44:15.959Z,57.77
2019-01-15T19:47:02.777Z,57.21
2019-01-15T19:49:33.025Z,56.83
2019-01-15T19:52:06.022Z,56.83
2019-01-15T19:54:42.588Z,56.63
2019-01-15T19:57:28.167Z,56.40
2019-01-15T20:00:16.406Z,58.10
2019-01-15T20:02:52.650Z,58.10
2019-01-15T20:05:23.106Z,58.42
2019-01-15T20:08:02.547Z,58.66
2019-01-15T20:10:41.759Z,58.47
2019-01-15T20:13:18.032Z,58.47
2019-01-15T20:15:51.172Z,58.27
2019-01-15T20:18:24.519Z,58.36
2019-01-15T20:20:54.775Z,58.44
2019-01-15T20:23:37.237Z,58.44
2019-01-15T20:26:19.349Z,58.66
2019-01-15T20:29:06.090Z,58.76
2019-01-15T20:31:45.519Z,58.76
2019-01-15T20:34:30.819Z,58.10
2019-01-15T20:37:01.141Z,58.06
2019-01-15T20:39:34.181Z,58.02
2019-01-15T20:42:07.570Z,58.58
2019-01-15T20:44:37.832Z,58.58
2019-01-15T20:47:14.164Z,59.77
2019-01-15T20:50:00.840Z,60.13
2019-01-15T20:52:37.275Z,60.13
2019-01-15T20:55:12.826Z,60.49
2019-01-15T20:57:43.929Z,61.82
2019-01-15T21:00:14.450Z,61.82
2019-01-15T21:02:56.745Z,61.51
2019-01-15T21:05:33.210Z,61.69
2019-01-15T21:08:03.515Z,61.69
2019-01-15T21:10:49.058Z,62.09
2019-01-15T21:13:19.348Z,62.09
2019-01-15T21:15:49.590Z,62.19
2019-01-15T21:18:29.008Z,62.89
2019-01-15T21:21:15.389Z,62.53
2019-01-15T21:23:51.757Z,62.53
2019-01-15T21:26:28.069Z,60.66
2019-01-15T21:29:01.490Z,60.66
2019-01-15T21:31:37.866Z,60.63
2019-01-15T21:34:08.274Z,60.62
2019-01-15T21:36:54.947Z,60.56
2019-01-15T21:39:25.261Z,60.87
2019-01-15T21:41:58.696Z,61.85
2019-01-15T21:44:44.326Z,62.21
2019-01-15T21:47:17.571Z,62.33
2019-01-15T21:49:53.854Z,61.09
2019-01-15T21:52:32.916Z,61.09
2019-01-15T21:55:12.602Z,60.38
2019-01-15T21:57:42.859Z,60.02
2019-01-15T22:00:14.711Z,60.28
2019-01-15T22:02:45.422Z,59.62
2019-01-15T22:05:21.633Z,59.62
2019-01-15T22:08:07.792Z,59.65
2019-01-15T22:10:40.996Z,59.96
2019-01-15T22:13:11.267Z,60.66
2019-01-15T22:15:50.832Z,60.42
2019-01-15T22:18:23.894Z,60.42
2019-01-15T22:20:54.132Z,59.97
2019-01-15T22:23:30.433Z,59.97
2019-01-15T22:26:00.669Z,60.30
2019-01-15T22:28:49.393Z,59.97
2019-01-15T22:31:22.387Z,60.70
2019-01-15T22:34:01.757Z,61.04
2019-01-15T22:36:50.275Z,61.37
2019-01-15T22:39:20.690Z,61.37
2019-01-15T22:41:59.978Z,61.77
2019-01-15T22:44:33.066Z,61.77
2019-01-15T22:47:06.115Z,62.21
2019-01-15T22:49:42.896Z,62.04
2019-01-15T22:52:25.227Z,61.32
2019-01-15T22:55:12.013Z,61.32
2019-01-15T22:57:48.103Z,61.41
2019-01-15T23:00:43.668Z,62.10
2019-01-15T23:03:30.016Z,62.10
2019-01-15T23:06:09.244Z,60.81
2019-01-15T23:08:42.601Z,60.81
2019-01-15T23:11:12.848Z,61.08
2019-01-15T23:13:46.229Z,61.38
2019-01-15T23:16:16.477Z,61.58
2019-01-15T23:18:59.141Z,61.52
2019-01-15T23:21:32.384Z,61.52
2019-01-15T23:24:11.718Z,61.21
2019-01-15T23:26:48.001Z,61.20
2019-01-15T23:29:18.336Z,61.35
2019-01-15T23:31:48.582Z,61.54
2019-01-15T23:34:18.835Z,62.38
2019-01-15T23:36:49.207Z,62.38
2019-01-15T23:39:28.724Z,62.59
2019-01-15T23:42:10.975Z,63.68
2019-01-15T23:44:49.961Z,63.68
2019-01-15T23:47:38.620Z,63.81
2019-01-15T23:50:11.194Z,63.97
2019-01-15T23:52:57.995Z,64.25
2019-01-15T23:55:44.739Z,64.06
2019-01-15T23:58:15.056Z,64.80
